sensor_id;sensor_type;location;lat;lon;timestamp;P1;durP1;ratioP1;P2;durP2;ratioP2
36585;SDS011;22591;48.314;11.562;2024-03-02T00:00:06;49.33;;;29.35;;
36585;SDS011;22591;48.314;11.562;2024-03-02T00:02:42;44.90;;;29.33;;
36585;SDS011;22591;48.314;11.562;2024-03-02T00:05:11;54.72;;;33.33;;
36585;SDS011;22591;48.314;11.562;2024-03-02T00:07:38;50.63;;;31.73;;
36585;SDS011;22591;48.314;11.562;2024-03-02T00:10:07;73.70;;;39.92;;
36585;SDS011;22591;48.314;11.562;2024-03-02T00:12:39;92.30;;;44.23;;
36585;SDS011;22591;48.314;11.562;2024-03-02T00:15:54;99.85;;;44.75;;
36585;SDS011;22591;48.314;11.562;2024-03-02T00:18:13;84.13;;;43.50;;
36585;SDS011;22591;48.314;11.562;2024-03-02T00:20:49;87.07;;;42.05;;
36585;SDS011;22591;48.314;11.562;2024-03-02T00:23:21;76.93;;;41.42;;
36585;SDS011;22591;48.314;11.562;2024-03-02T00:25:54;73.35;;;40.47;;
36585;SDS011;22591;48.314;11.562;2024-03-02T00:28:25;61.17;;;37.38;;
36585;SDS011;22591;48.314;11.562;2024-03-02T00:30:57;58.25;;;36.88;;
36585;SDS011;22591;48.314;11.562;2024-03-02T00:33:27;50.53;;;33.78;;
36585;SDS011;22591;48.314;11.562;2024-03-02T00:35:56;51.35;;;34.40;;
36585;SDS011;22591;48.314;11.562;2024-03-02T00:38:22;81.68;;;41.05;;
36585;SDS011;22591;48.314;11.562;2024-03-02T00:40:48;50.92;;;32.80;;
36585;SDS011;22591;48.314;11.562;2024-03-02T00:43:39;80.00;;;40.65;;
36585;SDS011;22591;48.314;11.562;2024-03-02T00:46:12;50.08;;;33.42;;
36585;SDS011;22591;48.314;11.562;2024-03-02T00:48:47;67.30;;;38.33;;
36585;SDS011;22591;48.314;11.562;2024-03-02T00:51:20;46.78;;;31.80;;
36585;SDS011;22591;48.314;11.562;2024-03-02T00:53:46;54.17;;;32.88;;
36585;SDS011;22591;48.314;11.562;2024-03-02T00:56:12;63.00;;;35.78;;
36585;SDS011;22591;48.314;11.562;2024-03-02T00:58:39;65.95;;;37.58;;
36585;SDS011;22591;48.314;11.562;2024-03-02T01:01:05;64.15;;;35.75;;
36585;SDS011;22591;48.314;11.562;2024-03-02T01:03:32;68.35;;;38.70;;
36585;SDS011;22591;48.314;11.562;2024-03-02T01:05:59;75.05;;;41.33;;
36585;SDS011;22591;48.314;11.562;2024-03-02T01:08:25;78.07;;;42.50;;
36585;SDS011;22591;48.314;11.562;2024-03-02T01:10:51;83.43;;;44.08;;
36585;SDS011;22591;48.314;11.562;2024-03-02T01:13:17;80.93;;;44.03;;
36585;SDS011;22591;48.314;11.562;2024-03-02T01:15:42;82.95;;;44.80;;
36585;SDS011;22591;48.314;11.562;2024-03-02T01:18:08;78.32;;;43.00;;
36585;SDS011;22591;48.314;11.562;2024-03-02T01:20:35;67.18;;;40.92;;
36585;SDS011;22591;48.314;11.562;2024-03-02T01:23:01;68.35;;;41.45;;
36585;SDS011;22591;48.314;11.562;2024-03-02T01:25:26;60.40;;;38.55;;
36585;SDS011;22591;48.314;11.562;2024-03-02T01:27:52;66.03;;;39.22;;
36585;SDS011;22591;48.314;11.562;2024-03-02T01:30:17;63.60;;;38.85;;
36585;SDS011;22591;48.314;11.562;2024-03-02T01:32:43;66.90;;;40.10;;
36585;SDS011;22591;48.314;11.562;2024-03-02T01:35:09;73.03;;;41.88;;
36585;SDS011;22591;48.314;11.562;2024-03-02T01:37:34;65.80;;;40.03;;
36585;SDS011;22591;48.314;11.562;2024-03-02T01:40:00;63.42;;;38.17;;
36585;SDS011;22591;48.314;11.562;2024-03-02T01:42:25;80.18;;;43.50;;
36585;SDS011;22591;48.314;11.562;2024-03-02T01:44:51;52.03;;;35.95;;
36585;SDS011;22591;48.314;11.562;2024-03-02T01:47:16;48.13;;;34.60;;
36585;SDS011;22591;48.314;11.562;2024-03-02T01:49:44;47.05;;;33.08;;
36585;SDS011;22591;48.314;11.562;2024-03-02T01:52:09;46.72;;;31.17;;
36585;SDS011;22591;48.314;11.562;2024-03-02T01:54:36;66.82;;;35.70;;
36585;SDS011;22591;48.314;11.562;2024-03-02T01:57:02;69.63;;;37.33;;
36585;SDS011;22591;48.314;11.562;2024-03-02T01:59:27;55.08;;;33.80;;
36585;SDS011;22591;48.314;11.562;2024-03-02T02:01:53;50.03;;;34.55;;
36585;SDS011;22591;48.314;11.562;2024-03-02T02:04:18;49.75;;;31.67;;
36585;SDS011;22591;48.314;11.562;2024-03-02T02:06:46;42.67;;;30.48;;
36585;SDS011;22591;48.314;11.562;2024-03-02T02:09:12;42.63;;;31.48;;
36585;SDS011;22591;48.314;11.562;2024-03-02T02:11:37;44.05;;;29.45;;
36585;SDS011;22591;48.314;11.562;2024-03-02T02:14:03;51.33;;;32.10;;
36585;SDS011;22591;48.314;11.562;2024-03-02T02:16:28;41.28;;;29.92;;
36585;SDS011;22591;48.314;11.562;2024-03-02T02:18:54;42.25;;;30.10;;
36585;SDS011;22591;48.314;11.562;2024-03-02T02:21:22;40.00;;;29.27;;
36585;SDS011;22591;48.314;11.562;2024-03-02T02:23:50;36.45;;;27.10;;
36585;SDS011;22591;48.314;11.562;2024-03-02T02:26:15;38.58;;;27.90;;
36585;SDS011;22591;48.314;11.562;2024-03-02T02:28:41;40.47;;;27.20;;
36585;SDS011;22591;48.314;11.562;2024-03-02T02:31:12;37.13;;;28.15;;
36585;SDS011;22591;48.314;11.562;2024-03-02T02:33:40;40.63;;;27.23;;
36585;SDS011;22591;48.314;11.562;2024-03-02T02:36:08;47.85;;;30.70;;
36585;SDS011;22591;48.314;11.562;2024-03-02T02:38:36;49.72;;;29.92;;
36585;SDS011;22591;48.314;11.562;2024-03-02T02:41:05;47.75;;;31.02;;
36585;SDS011;22591;48.314;11.562;2024-03-02T02:43:30;44.40;;;30.52;;
36585;SDS011;22591;48.314;11.562;2024-03-02T02:45:56;52.72;;;31.15;;
36585;SDS011;22591;48.314;11.562;2024-03-02T02:48:21;47.97;;;30.60;;
36585;SDS011;22591;48.314;11.562;2024-03-02T02:50:48;44.78;;;29.45;;
36585;SDS011;22591;48.314;11.562;2024-03-02T02:53:15;50.47;;;31.02;;
36585;SDS011;22591;48.314;11.562;2024-03-02T02:55:40;40.03;;;27.33;;
36585;SDS011;22591;48.314;11.562;2024-03-02T02:58:06;52.28;;;31.02;;
36585;SDS011;22591;48.314;11.562;2024-03-02T03:00:32;37.20;;;27.27;;
36585;SDS011;22591;48.314;11.562;2024-03-02T03:02:58;35.70;;;26.42;;
36585;SDS011;22591;48.314;11.562;2024-03-02T03:05:23;36.58;;;26.15;;
36585;SDS011;22591;48.314;11.562;2024-03-02T03:07:49;34.40;;;25.63;;
36585;SDS011;22591;48.314;11.562;2024-03-02T03:10:15;33.90;;;25.25;;
36585;SDS011;22591;48.314;11.562;2024-03-02T03:12:41;42.70;;;28.02;;
36585;SDS011;22591;48.314;11.562;2024-03-02T03:15:08;40.42;;;27.88;;
36585;SDS011;22591;48.314;11.562;2024-03-02T03:17:34;40.63;;;27.77;;
36585;SDS011;22591;48.314;11.562;2024-03-02T03:20:00;40.15;;;27.55;;
36585;SDS011;22591;48.314;11.562;2024-03-02T03:22:26;50.15;;;30.33;;
36585;SDS011;22591;48.314;11.562;2024-03-02T03:24:52;47.08;;;29.45;;
36585;SDS011;22591;48.314;11.562;2024-03-02T03:27:18;43.67;;;28.70;;
36585;SDS011;22591;48.314;11.562;2024-03-02T03:29:44;59.53;;;35.00;;
36585;SDS011;22591;48.314;11.562;2024-03-02T03:32:10;51.15;;;31.77;;
36585;SDS011;22591;48.314;11.562;2024-03-02T03:34:37;38.13;;;29.02;;
36585;SDS011;22591;48.314;11.562;2024-03-02T03:37:02;52.83;;;33.35;;
36585;SDS011;22591;48.314;11.562;2024-03-02T03:39:29;36.28;;;27.75;;
36585;SDS011;22591;48.314;11.562;2024-03-02T03:41:55;47.20;;;31.65;;
36585;SDS011;22591;48.314;11.562;2024-03-02T03:44:20;61.05;;;34.13;;
36585;SDS011;22591;48.314;11.562;2024-03-02T03:46:46;54.65;;;33.30;;
36585;SDS011;22591;48.314;11.562;2024-03-02T03:49:11;64.13;;;33.83;;
36585;SDS011;22591;48.314;11.562;2024-03-02T03:51:37;68.35;;;35.33;;
36585;SDS011;22591;48.314;11.562;2024-03-02T03:54:02;58.17;;;33.78;;
36585;SDS011;22591;48.314;11.562;2024-03-02T03:56:28;60.78;;;35.55;;
36585;SDS011;22591;48.314;11.562;2024-03-02T03:58:53;55.25;;;33.10;;
36585;SDS011;22591;48.314;11.562;2024-03-02T04:01:19;51.28;;;33.05;;
36585;SDS011;22591;48.314;11.562;2024-03-02T04:03:47;46.85;;;30.73;;
36585;SDS011;22591;48.314;11.562;2024-03-02T04:06:12;61.35;;;33.67;;
36585;SDS011;22591;48.314;11.562;2024-03-02T04:08:38;56.53;;;32.72;;
36585;SDS011;22591;48.314;11.562;2024-03-02T04:11:04;59.53;;;33.05;;
36585;SDS011;22591;48.314;11.562;2024-03-02T04:13:29;47.50;;;30.35;;
36585;SDS011;22591;48.314;11.562;2024-03-02T04:15:55;53.20;;;30.88;;
36585;SDS011;22591;48.314;11.562;2024-03-02T04:18:21;51.75;;;30.63;;
36585;SDS011;22591;48.314;11.562;2024-03-02T04:20:46;38.90;;;27.33;;
36585;SDS011;22591;48.314;11.562;2024-03-02T04:23:12;32.83;;;25.95;;
36585;SDS011;22591;48.314;11.562;2024-03-02T04:25:37;36.08;;;26.08;;
36585;SDS011;22591;48.314;11.562;2024-03-02T04:28:04;41.90;;;27.63;;
36585;SDS011;22591;48.314;11.562;2024-03-02T04:30:29;29.88;;;23.27;;
36585;SDS011;22591;48.314;11.562;2024-03-02T04:32:57;38.92;;;26.42;;
36585;SDS011;22591;48.314;11.562;2024-03-02T04:35:23;36.97;;;25.65;;
36585;SDS011;22591;48.314;11.562;2024-03-02T04:37:48;39.05;;;25.70;;
36585;SDS011;22591;48.314;11.562;2024-03-02T04:40:14;39.58;;;26.92;;
36585;SDS011;22591;48.314;11.562;2024-03-02T04:42:40;40.58;;;27.45;;
36585;SDS011;22591;48.314;11.562;2024-03-02T04:45:05;32.25;;;24.65;;
36585;SDS011;22591;48.314;11.562;2024-03-02T04:47:32;33.28;;;23.63;;
36585;SDS011;22591;48.314;11.562;2024-03-02T04:49:57;43.83;;;28.40;;
36585;SDS011;22591;48.314;11.562;2024-03-02T04:52:23;37.15;;;24.98;;
36585;SDS011;22591;48.314;11.562;2024-03-02T04:54:50;37.65;;;25.70;;
36585;SDS011;22591;48.314;11.562;2024-03-02T04:57:34;31.38;;;24.63;;
36585;SDS011;22591;48.314;11.562;2024-03-02T05:00:00;41.30;;;25.27;;
36585;SDS011;22591;48.314;11.562;2024-03-02T05:02:25;45.58;;;25.90;;
36585;SDS011;22591;48.314;11.562;2024-03-02T05:04:51;42.20;;;28.15;;
36585;SDS011;22591;48.314;11.562;2024-03-02T05:07:17;38.08;;;26.27;;
36585;SDS011;22591;48.314;11.562;2024-03-02T05:09:42;43.72;;;27.88;;
36585;SDS011;22591;48.314;11.562;2024-03-02T05:12:08;43.08;;;29.70;;
36585;SDS011;22591;48.314;11.562;2024-03-02T05:14:48;43.28;;;29.80;;
36585;SDS011;22591;48.314;11.562;2024-03-02T05:17:13;37.70;;;26.73;;
36585;SDS011;22591;48.314;11.562;2024-03-02T05:19:39;41.20;;;27.90;;
36585;SDS011;22591;48.314;11.562;2024-03-02T05:22:04;46.95;;;28.98;;
36585;SDS011;22591;48.314;11.562;2024-03-02T05:24:30;54.47;;;31.40;;
36585;SDS011;22591;48.314;11.562;2024-03-02T05:26:56;43.80;;;28.45;;
36585;SDS011;22591;48.314;11.562;2024-03-02T05:29:21;36.35;;;26.98;;
36585;SDS011;22591;48.314;11.562;2024-03-02T05:31:47;40.40;;;29.55;;
36585;SDS011;22591;48.314;11.562;2024-03-02T05:34:13;47.50;;;30.77;;
36585;SDS011;22591;48.314;11.562;2024-03-02T05:36:39;55.13;;;32.90;;
36585;SDS011;22591;48.314;11.562;2024-03-02T05:39:05;51.60;;;32.83;;
36585;SDS011;22591;48.314;11.562;2024-03-02T05:41:34;44.08;;;30.38;;
36585;SDS011;22591;48.314;11.562;2024-03-02T05:44:01;51.08;;;31.70;;
36585;SDS011;22591;48.314;11.562;2024-03-02T05:46:27;48.92;;;31.92;;
36585;SDS011;22591;48.314;11.562;2024-03-02T05:48:53;46.03;;;32.10;;
36585;SDS011;22591;48.314;11.562;2024-03-02T05:51:18;51.30;;;31.60;;
36585;SDS011;22591;48.314;11.562;2024-03-02T05:53:44;48.40;;;31.95;;
36585;SDS011;22591;48.314;11.562;2024-03-02T05:56:09;51.97;;;34.13;;
36585;SDS011;22591;48.314;11.562;2024-03-02T05:58:35;45.03;;;33.08;;
36585;SDS011;22591;48.314;11.562;2024-03-02T06:01:19;53.75;;;33.03;;
36585;SDS011;22591;48.314;11.562;2024-03-02T06:03:45;58.10;;;34.70;;
36585;SDS011;22591;48.314;11.562;2024-03-02T06:06:10;45.58;;;31.42;;
36585;SDS011;22591;48.314;11.562;2024-03-02T06:08:36;44.17;;;30.63;;
36585;SDS011;22591;48.314;11.562;2024-03-02T06:11:04;41.20;;;28.92;;
36585;SDS011;22591;48.314;11.562;2024-03-02T06:13:30;42.30;;;30.13;;
36585;SDS011;22591;48.314;11.562;2024-03-02T06:15:56;45.53;;;30.75;;
36585;SDS011;22591;48.314;11.562;2024-03-02T06:18:21;47.22;;;30.48;;
36585;SDS011;22591;48.314;11.562;2024-03-02T06:20:47;39.97;;;28.70;;
36585;SDS011;22591;48.314;11.562;2024-03-02T06:23:12;49.45;;;30.73;;
36585;SDS011;22591;48.314;11.562;2024-03-02T06:25:39;39.92;;;28.70;;
36585;SDS011;22591;48.314;11.562;2024-03-02T06:28:05;53.55;;;32.47;;
36585;SDS011;22591;48.314;11.562;2024-03-02T06:30:31;60.20;;;34.10;;
36585;SDS011;22591;48.314;11.562;2024-03-02T06:32:56;45.58;;;30.70;;
36585;SDS011;22591;48.314;11.562;2024-03-02T06:35:22;59.50;;;33.80;;
36585;SDS011;22591;48.314;11.562;2024-03-02T06:37:48;58.13;;;33.53;;
36585;SDS011;22591;48.314;11.562;2024-03-02T06:40:13;53.70;;;31.05;;
36585;SDS011;22591;48.314;11.562;2024-03-02T06:42:39;82.97;;;37.72;;
36585;SDS011;22591;48.314;11.562;2024-03-02T06:45:05;69.95;;;35.10;;
36585;SDS011;22591;48.314;11.562;2024-03-02T06:47:30;72.65;;;37.28;;
36585;SDS011;22591;48.314;11.562;2024-03-02T06:49:56;63.75;;;36.03;;
36585;SDS011;22591;48.314;11.562;2024-03-02T06:52:23;55.22;;;34.15;;
36585;SDS011;22591;48.314;11.562;2024-03-02T06:54:49;39.45;;;28.35;;
36585;SDS011;22591;48.314;11.562;2024-03-02T06:57:15;63.05;;;33.70;;
36585;SDS011;22591;48.314;11.562;2024-03-02T06:59:42;42.90;;;28.88;;
36585;SDS011;22591;48.314;11.562;2024-03-02T07:02:07;37.13;;;27.38;;
36585;SDS011;22591;48.314;11.562;2024-03-02T07:04:33;43.33;;;28.67;;
36585;SDS011;22591;48.314;11.562;2024-03-02T07:06:59;32.47;;;24.05;;
36585;SDS011;22591;48.314;11.562;2024-03-02T07:09:25;49.60;;;30.23;;
36585;SDS011;22591;48.314;11.562;2024-03-02T07:11:50;47.95;;;30.38;;
36585;SDS011;22591;48.314;11.562;2024-03-02T07:14:16;32.03;;;26.95;;
36585;SDS011;22591;48.314;11.562;2024-03-02T07:16:42;33.10;;;24.83;;
36585;SDS011;22591;48.314;11.562;2024-03-02T07:19:08;44.35;;;27.80;;
36585;SDS011;22591;48.314;11.562;2024-03-02T07:21:34;54.45;;;30.25;;
36585;SDS011;22591;48.314;11.562;2024-03-02T07:23:59;33.63;;;26.08;;
36585;SDS011;22591;48.314;11.562;2024-03-02T07:26:27;35.15;;;25.02;;
36585;SDS011;22591;48.314;11.562;2024-03-02T07:28:55;41.45;;;28.08;;
36585;SDS011;22591;48.314;11.562;2024-03-02T07:31:20;41.78;;;27.52;;
36585;SDS011;22591;48.314;11.562;2024-03-02T07:33:46;39.90;;;26.17;;
36585;SDS011;22591;48.314;11.562;2024-03-02T07:36:13;41.25;;;27.92;;
36585;SDS011;22591;48.314;11.562;2024-03-02T07:38:38;42.47;;;27.00;;
36585;SDS011;22591;48.314;11.562;2024-03-02T07:41:05;44.50;;;29.52;;
36585;SDS011;22591;48.314;11.562;2024-03-02T07:43:33;45.25;;;29.77;;
36585;SDS011;22591;48.314;11.562;2024-03-02T07:45:58;49.40;;;33.95;;
36585;SDS011;22591;48.314;11.562;2024-03-02T07:48:24;65.78;;;39.40;;
36585;SDS011;22591;48.314;11.562;2024-03-02T07:50:50;68.72;;;39.33;;
36585;SDS011;22591;48.314;11.562;2024-03-02T07:53:16;61.22;;;38.17;;
36585;SDS011;22591;48.314;11.562;2024-03-02T07:55:41;62.05;;;38.13;;
36585;SDS011;22591;48.314;11.562;2024-03-02T07:58:07;51.75;;;36.35;;
36585;SDS011;22591;48.314;11.562;2024-03-02T08:00:33;44.22;;;32.97;;
36585;SDS011;22591;48.314;11.562;2024-03-02T08:02:58;50.55;;;36.28;;
36585;SDS011;22591;48.314;11.562;2024-03-02T08:05:25;49.13;;;34.67;;
36585;SDS011;22591;48.314;11.562;2024-03-02T08:07:52;43.58;;;32.85;;
36585;SDS011;22591;48.314;11.562;2024-03-02T08:10:18;43.20;;;31.42;;
36585;SDS011;22591;48.314;11.562;2024-03-02T08:12:44;43.30;;;31.15;;
36585;SDS011;22591;48.314;11.562;2024-03-02T08:15:10;39.90;;;31.48;;
36585;SDS011;22591;48.314;11.562;2024-03-02T08:17:37;48.72;;;31.77;;
36585;SDS011;22591;48.314;11.562;2024-03-02T08:20:05;45.03;;;32.97;;
36585;SDS011;22591;48.314;11.562;2024-03-02T08:22:33;46.25;;;34.38;;
36585;SDS011;22591;48.314;11.562;2024-03-02T08:24:58;44.58;;;30.20;;
36585;SDS011;22591;48.314;11.562;2024-03-02T08:27:24;38.63;;;29.70;;
36585;SDS011;22591;48.314;11.562;2024-03-02T08:29:49;42.33;;;31.02;;
36585;SDS011;22591;48.314;11.562;2024-03-02T08:32:15;38.10;;;29.13;;
36585;SDS011;22591;48.314;11.562;2024-03-02T08:34:42;42.33;;;30.65;;
36585;SDS011;22591;48.314;11.562;2024-03-02T08:37:07;41.70;;;28.92;;
36585;SDS011;22591;48.314;11.562;2024-03-02T08:39:33;32.92;;;26.38;;
36585;SDS011;22591;48.314;11.562;2024-03-02T08:42:00;39.50;;;28.95;;
36585;SDS011;22591;48.314;11.562;2024-03-02T08:44:25;37.33;;;28.80;;
36585;SDS011;22591;48.314;11.562;2024-03-02T08:46:51;42.63;;;30.83;;
36585;SDS011;22591;48.314;11.562;2024-03-02T08:49:17;40.22;;;29.60;;
36585;SDS011;22591;48.314;11.562;2024-03-02T08:51:42;39.55;;;29.13;;
36585;SDS011;22591;48.314;11.562;2024-03-02T08:54:08;41.25;;;28.33;;
36585;SDS011;22591;48.314;11.562;2024-03-02T08:56:33;34.92;;;27.40;;
36585;SDS011;22591;48.314;11.562;2024-03-02T08:59:00;36.80;;;29.52;;
36585;SDS011;22591;48.314;11.562;2024-03-02T09:01:25;34.60;;;26.73;;
36585;SDS011;22591;48.314;11.562;2024-03-02T09:03:51;33.30;;;26.58;;
36585;SDS011;22591;48.314;11.562;2024-03-02T09:06:16;34.03;;;26.48;;
36585;SDS011;22591;48.314;11.562;2024-03-02T09:08:43;36.70;;;26.67;;
36585;SDS011;22591;48.314;11.562;2024-03-02T09:11:10;36.47;;;28.63;;
36585;SDS011;22591;48.314;11.562;2024-03-02T09:13:36;33.33;;;26.67;;
36585;SDS011;22591;48.314;11.562;2024-03-02T09:16:03;36.53;;;27.02;;
36585;SDS011;22591;48.314;11.562;2024-03-02T09:18:29;37.35;;;28.23;;
36585;SDS011;22591;48.314;11.562;2024-03-02T09:20:54;36.97;;;28.30;;
36585;SDS011;22591;48.314;11.562;2024-03-02T09:23:20;35.88;;;27.40;;
36585;SDS011;22591;48.314;11.562;2024-03-02T09:25:46;36.22;;;25.80;;
36585;SDS011;22591;48.314;11.562;2024-03-02T09:28:11;38.60;;;25.67;;
36585;SDS011;22591;48.314;11.562;2024-03-02T09:30:37;38.22;;;26.65;;
36585;SDS011;22591;48.314;11.562;2024-03-02T09:33:03;35.85;;;25.17;;
36585;SDS011;22591;48.314;11.562;2024-03-02T09:35:29;40.67;;;28.02;;
36585;SDS011;22591;48.314;11.562;2024-03-02T09:37:55;36.42;;;27.50;;
36585;SDS011;22591;48.314;11.562;2024-03-02T09:40:24;36.17;;;25.30;;
36585;SDS011;22591;48.314;11.562;2024-03-02T09:42:50;40.53;;;27.38;;
36585;SDS011;22591;48.314;11.562;2024-03-02T09:45:24;34.58;;;24.65;;
36585;SDS011;22591;48.314;11.562;2024-03-02T09:47:50;34.40;;;24.40;;
36585;SDS011;22591;48.314;11.562;2024-03-02T09:50:16;31.00;;;22.88;;
36585;SDS011;22591;48.314;11.562;2024-03-02T09:52:47;33.13;;;24.10;;
36585;SDS011;22591;48.314;11.562;2024-03-02T09:55:14;35.92;;;24.70;;
36585;SDS011;22591;48.314;11.562;2024-03-02T09:57:42;30.02;;;24.00;;
36585;SDS011;22591;48.314;11.562;2024-03-02T10:00:08;34.92;;;23.02;;
36585;SDS011;22591;48.314;11.562;2024-03-02T10:02:34;30.08;;;23.80;;
36585;SDS011;22591;48.314;11.562;2024-03-02T10:04:59;32.50;;;23.63;;
36585;SDS011;22591;48.314;11.562;2024-03-02T10:07:25;33.22;;;25.10;;
36585;SDS011;22591;48.314;11.562;2024-03-02T10:09:50;33.92;;;22.98;;
36585;SDS011;22591;48.314;11.562;2024-03-02T10:12:17;32.67;;;24.70;;
36585;SDS011;22591;48.314;11.562;2024-03-02T10:14:43;33.88;;;24.17;;
36585;SDS011;22591;48.314;11.562;2024-03-02T10:17:10;31.08;;;22.27;;
36585;SDS011;22591;48.314;11.562;2024-03-02T10:19:37;32.53;;;23.20;;
36585;SDS011;22591;48.314;11.562;2024-03-02T10:22:04;33.42;;;24.08;;
36585;SDS011;22591;48.314;11.562;2024-03-02T10:24:49;33.65;;;24.90;;
36585;SDS011;22591;48.314;11.562;2024-03-02T10:27:19;31.27;;;23.55;;
36585;SDS011;22591;48.314;11.562;2024-03-02T10:29:48;35.90;;;26.17;;
36585;SDS011;22591;48.314;11.562;2024-03-02T10:32:14;32.70;;;25.75;;
36585;SDS011;22591;48.314;11.562;2024-03-02T10:34:41;33.38;;;25.52;;
36585;SDS011;22591;48.314;11.562;2024-03-02T10:37:08;33.97;;;25.85;;
36585;SDS011;22591;48.314;11.562;2024-03-02T10:39:36;34.78;;;24.63;;
36585;SDS011;22591;48.314;11.562;2024-03-02T10:42:02;31.98;;;23.73;;
36585;SDS011;22591;48.314;11.562;2024-03-02T10:44:29;34.30;;;25.33;;
36585;SDS011;22591;48.314;11.562;2024-03-02T10:46:56;32.25;;;24.92;;
36585;SDS011;22591;48.314;11.562;2024-03-02T10:49:27;35.38;;;26.35;;
36585;SDS011;22591;48.314;11.562;2024-03-02T10:51:54;35.22;;;26.02;;
36585;SDS011;22591;48.314;11.562;2024-03-02T10:54:21;33.70;;;26.45;;
36585;SDS011;22591;48.314;11.562;2024-03-02T10:56:51;33.67;;;25.13;;
36585;SDS011;22591;48.314;11.562;2024-03-02T10:59:23;32.88;;;25.08;;
36585;SDS011;22591;48.314;11.562;2024-03-02T11:02:01;36.35;;;27.73;;
36585;SDS011;22591;48.314;11.562;2024-03-02T11:04:29;37.55;;;27.27;;
36585;SDS011;22591;48.314;11.562;2024-03-02T11:06:59;32.95;;;27.02;;
36585;SDS011;22591;48.314;11.562;2024-03-02T11:09:29;33.38;;;26.15;;
36585;SDS011;22591;48.314;11.562;2024-03-02T11:15:01;35.88;;;26.20;;
36585;SDS011;22591;48.314;11.562;2024-03-02T11:19:59;40.88;;;29.15;;
36585;SDS011;22591;48.314;11.562;2024-03-02T11:22:25;36.03;;;26.85;;
36585;SDS011;22591;48.314;11.562;2024-03-02T11:24:52;39.40;;;29.55;;
36585;SDS011;22591;48.314;11.562;2024-03-02T11:32:59;34.25;;;25.05;;
36585;SDS011;22591;48.314;11.562;2024-03-02T11:35:27;36.58;;;27.38;;
36585;SDS011;22591;48.314;11.562;2024-03-02T11:37:54;37.65;;;25.92;;
36585;SDS011;22591;48.314;11.562;2024-03-02T11:40:23;31.20;;;24.05;;
36585;SDS011;22591;48.314;11.562;2024-03-02T11:42:52;31.50;;;23.38;;
36585;SDS011;22591;48.314;11.562;2024-03-02T11:45:22;33.50;;;25.55;;
36585;SDS011;22591;48.314;11.562;2024-03-02T11:47:55;35.85;;;24.80;;
36585;SDS011;22591;48.314;11.562;2024-03-02T11:50:46;33.10;;;25.75;;
36585;SDS011;22591;48.314;11.562;2024-03-02T11:53:12;32.28;;;25.50;;
36585;SDS011;22591;48.314;11.562;2024-03-02T11:55:39;32.45;;;23.42;;
36585;SDS011;22591;48.314;11.562;2024-03-02T11:58:11;25.55;;;21.63;;
36585;SDS011;22591;48.314;11.562;2024-03-02T12:00:37;28.23;;;21.65;;
36585;SDS011;22591;48.314;11.562;2024-03-02T12:03:04;26.25;;;21.50;;
36585;SDS011;22591;48.314;11.562;2024-03-02T12:05:35;27.73;;;21.10;;
36585;SDS011;22591;48.314;11.562;2024-03-02T12:08:07;28.88;;;22.00;;
36585;SDS011;22591;48.314;11.562;2024-03-02T12:10:35;27.05;;;21.50;;
36585;SDS011;22591;48.314;11.562;2024-03-02T12:13:02;33.85;;;21.77;;
36585;SDS011;22591;48.314;11.562;2024-03-02T12:15:34;28.42;;;20.58;;
36585;SDS011;22591;48.314;11.562;2024-03-02T12:18:02;37.88;;;20.25;;
36585;SDS011;22591;48.314;11.562;2024-03-02T12:20:29;28.50;;;21.65;;
36585;SDS011;22591;48.314;11.562;2024-03-02T12:23:00;21.23;;;16.60;;
36585;SDS011;22591;48.314;11.562;2024-03-02T12:25:27;20.48;;;17.80;;
36585;SDS011;22591;48.314;11.562;2024-03-02T12:27:54;22.98;;;19.70;;
36585;SDS011;22591;48.314;11.562;2024-03-02T12:30:20;24.98;;;19.35;;
36585;SDS011;22591;48.314;11.562;2024-03-02T12:32:47;23.55;;;17.42;;
36585;SDS011;22591;48.314;11.562;2024-03-02T12:35:13;20.42;;;17.23;;
36585;SDS011;22591;48.314;11.562;2024-03-02T12:37:52;22.85;;;17.90;;
36585;SDS011;22591;48.314;11.562;2024-03-02T12:40:19;17.30;;;14.25;;
36585;SDS011;22591;48.314;11.562;2024-03-02T12:42:47;26.20;;;19.90;;
36585;SDS011;22591;48.314;11.562;2024-03-02T12:45:13;22.05;;;16.10;;
36585;SDS011;22591;48.314;11.562;2024-03-02T12:47:41;22.83;;;16.52;;
36585;SDS011;22591;48.314;11.562;2024-03-02T12:50:09;17.23;;;13.68;;
36585;SDS011;22591;48.314;11.562;2024-03-02T12:52:35;19.08;;;15.73;;
36585;SDS011;22591;48.314;11.562;2024-03-02T12:55:01;23.40;;;17.00;;
36585;SDS011;22591;48.314;11.562;2024-03-02T12:57:29;16.75;;;14.73;;
36585;SDS011;22591;48.314;11.562;2024-03-02T12:59:59;22.25;;;17.38;;
36585;SDS011;22591;48.314;11.562;2024-03-02T13:02:35;23.17;;;19.42;;
36585;SDS011;22591;48.314;11.562;2024-03-02T13:05:02;20.25;;;17.27;;
36585;SDS011;22591;48.314;11.562;2024-03-02T13:07:28;22.45;;;17.73;;
36585;SDS011;22591;48.314;11.562;2024-03-02T13:09:58;21.58;;;16.95;;
36585;SDS011;22591;48.314;11.562;2024-03-02T13:12:27;23.17;;;16.35;;
36585;SDS011;22591;48.314;11.562;2024-03-02T13:14:55;21.38;;;17.30;;
36585;SDS011;22591;48.314;11.562;2024-03-02T13:17:27;19.70;;;17.17;;
36585;SDS011;22591;48.314;11.562;2024-03-02T13:19:59;22.15;;;17.70;;
36585;SDS011;22591;48.314;11.562;2024-03-02T13:22:25;24.50;;;18.95;;
36585;SDS011;22591;48.314;11.562;2024-03-02T13:24:51;20.83;;;17.13;;
36585;SDS011;22591;48.314;11.562;2024-03-02T13:27:19;22.70;;;18.88;;
36585;SDS011;22591;48.314;11.562;2024-03-02T13:29:48;21.77;;;16.17;;
36585;SDS011;22591;48.314;11.562;2024-03-02T13:32:14;22.52;;;17.80;;
36585;SDS011;22591;48.314;11.562;2024-03-02T13:34:41;23.73;;;18.35;;
36585;SDS011;22591;48.314;11.562;2024-03-02T13:37:07;26.27;;;19.80;;
36585;SDS011;22591;48.314;11.562;2024-03-02T13:39:33;20.38;;;16.88;;
36585;SDS011;22591;48.314;11.562;2024-03-02T13:42:04;25.83;;;20.00;;
36585;SDS011;22591;48.314;11.562;2024-03-02T13:44:35;22.73;;;17.98;;
36585;SDS011;22591;48.314;11.562;2024-03-02T13:47:01;18.60;;;16.65;;
36585;SDS011;22591;48.314;11.562;2024-03-02T13:49:27;19.42;;;15.73;;
36585;SDS011;22591;48.314;11.562;2024-03-02T13:51:58;24.13;;;18.17;;
36585;SDS011;22591;48.314;11.562;2024-03-02T13:54:54;21.05;;;18.17;;
36585;SDS011;22591;48.314;11.562;2024-03-02T13:57:19;22.77;;;19.73;;
36585;SDS011;22591;48.314;11.562;2024-03-02T13:59:45;26.75;;;18.77;;
36585;SDS011;22591;48.314;11.562;2024-03-02T14:02:12;22.08;;;18.77;;
36585;SDS011;22591;48.314;11.562;2024-03-02T14:04:37;22.63;;;18.50;;
36585;SDS011;22591;48.314;11.562;2024-03-02T14:07:03;23.30;;;18.42;;
36585;SDS011;22591;48.314;11.562;2024-03-02T14:09:33;25.05;;;19.63;;
36585;SDS011;22591;48.314;11.562;2024-03-02T14:11:59;27.50;;;21.15;;
36585;SDS011;22591;48.314;11.562;2024-03-02T14:14:27;26.92;;;19.60;;
36585;SDS011;22591;48.314;11.562;2024-03-02T14:16:56;29.92;;;20.45;;
36585;SDS011;22591;48.314;11.562;2024-03-02T14:21:50;25.90;;;19.00;;